createdAt,value
2023-01-28T00:00:59.375Z,0.05
2023-01-28T00:03:26.406Z,0.52
2023-01-28T00:06:01.548Z,0.49
2023-01-28T00:08:28.524Z,0.45
2023-01-28T00:10:58.309Z,0.33
2023-01-28T00:13:25.219Z,0.38
2023-01-28T00:15:59.324Z,0.36
2023-01-28T00:18:30.156Z,0.25
2023-01-28T00:21:02.664Z,0.33
2023-01-28T00:23:31.532Z,0.29
2023-01-28T00:26:03.494Z,0.27
2023-01-28T00:28:30.542Z,0.12
2023-01-28T00:30:57.573Z,0.28
2023-01-28T00:33:24.954Z,0.18
2023-01-28T00:36:00.429Z,0.24
2023-01-28T00:38:28.501Z,0.24
2023-01-28T00:40:55.980Z,0.25
2023-01-28T00:43:23.741Z,0.11
2023-01-28T00:45:50.753Z,0.22
2023-01-28T00:48:17.710Z,0.18
2023-01-28T00:50:46.133Z,0.20
2023-01-28T00:53:14.282Z,0.22
2023-01-28T00:55:41.274Z,0.23
2023-01-28T00:58:09.076Z,0.16
2023-01-28T01:00:36.129Z,0.27
2023-01-28T01:03:03.122Z,0.23
2023-01-28T01:05:30.120Z,-0.14
2023-01-28T01:07:57.096Z,0.15
2023-01-28T01:10:24.103Z,0.20
2023-01-28T01:12:51.081Z,0.16
2023-01-28T01:15:20.316Z,0.06
2023-01-28T01:17:49.411Z,0.04
2023-01-28T01:20:22.767Z,0.06
2023-01-28T01:22:51.576Z,0.03
2023-01-28T01:25:19.222Z,0.02
2023-01-28T01:27:51.087Z,-0.01
2023-01-28T01:30:18.706Z,0.10
2023-01-28T01:32:45.749Z,0.11
2023-01-28T01:35:13.102Z,0.12
2023-01-28T01:37:40.312Z,0.11
2023-01-28T01:40:08.070Z,0.12
2023-01-28T01:42:35.085Z,0.25
2023-01-28T01:45:24.054Z,0.08
2023-01-28T01:48:11.120Z,0.19
2023-01-28T01:50:53.651Z,0.22
2023-01-28T01:53:23.816Z,0.17
2023-01-28T01:55:56.104Z,-0.03
2023-01-28T01:58:27.675Z,0.13
2023-01-28T02:00:54.693Z,0.05
2023-01-28T02:03:34.159Z,-0.03
2023-01-28T02:06:01.414Z,-0.11
2023-01-28T02:08:28.490Z,-0.13
2023-01-28T02:11:01.501Z,-0.15
2023-01-28T02:13:32.787Z,-0.21
2023-01-28T02:16:02.221Z,-0.25
2023-01-28T02:18:29.358Z,-0.18
2023-01-28T02:20:56.263Z,-0.20
2023-01-28T02:23:42.054Z,-0.17
2023-01-28T02:26:18.145Z,-0.24
2023-01-28T02:29:00.164Z,-0.19
2023-01-28T02:31:43.272Z,-0.38
2023-01-28T02:34:34.956Z,-0.27
2023-01-28T02:37:43.780Z,-0.34
2023-01-28T02:40:14.815Z,-0.41
2023-01-28T02:42:44.710Z,-0.44
2023-01-28T02:45:26.001Z,-0.39
2023-01-28T02:47:59.378Z,-0.44
2023-01-28T02:50:39.958Z,-0.38
2023-01-28T02:53:28.458Z,-0.37
2023-01-28T02:56:07.613Z,-0.36
2023-01-28T02:58:56.108Z,-0.36
2023-01-28T03:01:39.071Z,-0.46
2023-01-28T03:04:19.605Z,-0.32
2023-01-28T03:06:53.787Z,-0.46
2023-01-28T03:09:23.938Z,-0.49
2023-01-28T03:12:21.583Z,-0.37
2023-01-28T03:15:17.226Z,-0.37
2023-01-28T03:18:05.346Z,-0.45
2023-01-28T03:21:05.498Z,-0.30
2023-01-28T03:23:58.059Z,-0.37
2023-01-28T03:26:47.056Z,-0.42
2023-01-28T03:29:33.939Z,-0.56
2023-01-28T03:32:24.606Z,-0.58
2023-01-28T03:35:11.763Z,-0.52
2023-01-28T03:37:39.083Z,-0.54
2023-01-28T03:40:14.568Z,-0.50
2023-01-28T03:42:43.279Z,-0.63
2023-01-28T03:45:23.300Z,-0.59
2023-01-28T03:47:50.467Z,-0.54
2023-01-28T03:50:17.746Z,-0.43
2023-01-28T03:52:55.175Z,-0.45
2023-01-28T03:55:27.541Z,-0.59
2023-01-28T03:57:54.684Z,-0.54
2023-01-28T04:00:22.119Z,-0.60
2023-01-28T04:02:49.868Z,-0.58
2023-01-28T04:05:20.369Z,-0.68
2023-01-28T04:07:51.762Z,-0.69
2023-01-28T04:10:40.089Z,-0.77
2023-01-28T04:13:19.389Z,-0.87
2023-01-28T04:15:47.385Z,-0.80
2023-01-28T04:18:16.063Z,-0.87
2023-01-28T04:20:43.316Z,-0.86
2023-01-28T04:23:10.783Z,-1.00
2023-01-28T04:25:37.824Z,-0.88
2023-01-28T04:28:08.133Z,-0.95
2023-01-28T04:30:35.221Z,-0.97
2023-01-28T04:33:14.576Z,-1.06
2023-01-28T04:36:11.948Z,-1.11
2023-01-28T04:39:05.078Z,-1.06
2023-01-28T04:41:38.387Z,-1.08
2023-01-28T04:44:17.365Z,-0.98
2023-01-28T04:47:10.655Z,-1.02
2023-01-28T04:49:56.407Z,-1.04
2023-01-28T04:52:52.123Z,-1.15
2023-01-28T04:55:37.468Z,-1.08
2023-01-28T04:58:05.563Z,-1.24
2023-01-28T05:00:34.030Z,-1.08
2023-01-28T05:03:01.255Z,-1.10
2023-01-28T05:05:28.280Z,-1.08
2023-01-28T05:07:59.406Z,-1.21
2023-01-28T05:10:27.637Z,-1.07
2023-01-28T05:12:55.549Z,-1.06
2023-01-28T05:15:22.684Z,-1.11
2023-01-28T05:17:51.265Z,-1.25
2023-01-28T05:20:22.288Z,-0.98
2023-01-28T05:22:50.344Z,-1.04
2023-01-28T05:25:23.191Z,-1.24
2023-01-28T05:27:53.167Z,-1.10
2023-01-28T05:30:21.145Z,-1.13
2023-01-28T05:32:48.790Z,-1.25
2023-01-28T05:35:20.504Z,-1.15
2023-01-28T05:37:47.658Z,-1.18
2023-01-28T05:40:15.482Z,-1.41
2023-01-28T05:42:43.808Z,-1.38
2023-01-28T05:45:24.421Z,-1.40
2023-01-28T05:48:04.501Z,-1.29
2023-01-28T05:50:50.232Z,-1.27
2023-01-28T05:53:21.881Z,-1.48
2023-01-28T05:55:51.685Z,-1.44
2023-01-28T05:58:18.994Z,-1.41
2023-01-28T06:00:46.133Z,-1.40
2023-01-28T06:03:14.553Z,-1.41
2023-01-28T06:05:43.295Z,-1.39
2023-01-28T06:08:10.433Z,-1.44
2023-01-28T06:10:37.818Z,-1.55
2023-01-28T06:13:04.793Z,-1.45
2023-01-28T06:15:57.829Z,-1.45
2023-01-28T06:18:34.879Z,-1.54
2023-01-28T06:21:01.969Z,-1.54
2023-01-28T06:23:28.947Z,-1.52
2023-01-28T06:25:57.774Z,-1.58
2023-01-28T06:28:26.239Z,-1.54
2023-01-28T06:30:53.722Z,-1.53
2023-01-28T06:33:21.545Z,-1.97
2023-01-28T06:35:48.931Z,-1.59
2023-01-28T06:38:16.190Z,-1.59
2023-01-28T06:40:43.142Z,-1.77
2023-01-28T06:43:10.138Z,-1.75
2023-01-28T06:45:37.207Z,-1.62
2023-01-28T06:48:05.677Z,-1.63
2023-01-28T06:50:34.249Z,-1.93
2023-01-28T06:53:01.195Z,-1.94
2023-01-28T06:55:28.219Z,-1.69
2023-01-28T06:57:55.142Z,-1.59
2023-01-28T07:00:22.180Z,-1.61
2023-01-28T07:02:49.263Z,-1.54
2023-01-28T07:05:16.348Z,-1.58
2023-01-28T07:07:43.374Z,-1.60
2023-01-28T07:10:11.285Z,-1.69
2023-01-28T07:12:38.225Z,-1.46
2023-01-28T07:15:05.754Z,-1.48
2023-01-28T07:17:32.777Z,-1.52
2023-01-28T07:19:59.915Z,-1.45
2023-01-28T07:22:26.871Z,-1.46
2023-01-28T07:24:53.812Z,-1.39
2023-01-28T07:27:20.748Z,-1.39
2023-01-28T07:29:47.693Z,-1.35
2023-01-28T07:32:14.801Z,-1.37
2023-01-28T07:34:43.242Z,-1.58
2023-01-28T07:37:10.373Z,-1.38
2023-01-28T07:39:37.345Z,-1.43
2023-01-28T07:42:04.947Z,-1.41
2023-01-28T07:44:37.061Z,-1.47
2023-01-28T07:47:04.216Z,-1.33
2023-01-28T07:49:31.285Z,-1.33
2023-01-28T07:51:58.238Z,-1.34
2023-01-28T07:54:25.195Z,-1.45
2023-01-28T07:56:52.172Z,-1.35
2023-01-28T07:59:19.386Z,-1.41
2023-01-28T08:01:46.404Z,-1.31
2023-01-28T08:04:13.493Z,-1.32
2023-01-28T08:06:40.532Z,-1.28
2023-01-28T08:09:08.562Z,-1.38
2023-01-28T08:11:38.844Z,-1.39
2023-01-28T08:14:05.974Z,-1.33
2023-01-28T08:16:33.001Z,-1.27
2023-01-28T08:18:59.992Z,-1.33
2023-01-28T08:21:27.094Z,-1.33
2023-01-28T08:23:54.969Z,-1.26
2023-01-28T08:26:21.984Z,-1.18
2023-01-28T08:28:51.262Z,-1.49
2023-01-28T08:31:18.900Z,-1.16
2023-01-28T08:33:46.062Z,-1.04
2023-01-28T08:36:13.205Z,-1.02
2023-01-28T08:38:40.191Z,-1.24
2023-01-28T08:41:07.162Z,-1.07
2023-01-28T08:43:34.214Z,-1.18
2023-01-28T08:46:01.236Z,-1.21
2023-01-28T08:48:28.328Z,-1.06
2023-01-28T08:50:58.879Z,-0.99
2023-01-28T08:53:25.921Z,-1.07
2023-01-28T08:55:54.227Z,-1.03
2023-01-28T08:58:21.315Z,-1.03
2023-01-28T09:00:48.601Z,-1.21
2023-01-28T09:03:15.845Z,-0.99
2023-01-28T09:05:42.871Z,-1.08
2023-01-28T09:08:14.963Z,-1.04
2023-01-28T09:10:42.914Z,-1.06
2023-01-28T09:13:12.934Z,-1.13
2023-01-28T09:15:40.530Z,-1.08
2023-01-28T09:18:07.673Z,-0.96
2023-01-28T09:20:34.690Z,-1.33
2023-01-28T09:23:02.549Z,-1.03
2023-01-28T09:25:29.714Z,-1.05
2023-01-28T09:27:57.755Z,-1.11
2023-01-28T09:30:24.976Z,-1.01
2023-01-28T09:32:53.752Z,-0.99
2023-01-28T09:35:21.207Z,-1.04
2023-01-28T09:37:49.050Z,-0.92
2023-01-28T09:40:33.353Z,-1.08
2023-01-28T09:43:09.437Z,-0.93
2023-01-28T09:45:44.781Z,-0.85
2023-01-28T09:48:30.962Z,-0.96
2023-01-28T09:50:58.684Z,-0.99
2023-01-28T09:53:37.128Z,-0.89
2023-01-28T09:56:08.462Z,-0.92
2023-01-28T09:58:35.566Z,-0.86
2023-01-28T10:01:09.227Z,-0.72
2023-01-28T10:03:38.890Z,-0.63
2023-01-28T10:06:37.017Z,-0.64
2023-01-28T10:09:24.205Z,-0.71
2023-01-28T10:12:30.332Z,-0.67
2023-01-28T10:15:34.414Z,-0.62
2023-01-28T10:18:17.542Z,-0.61
2023-01-28T10:20:51.222Z,-0.63
2023-01-28T10:23:22.520Z,-0.67
2023-01-28T10:25:49.615Z,-0.73
2023-01-28T10:28:30.086Z,-0.77
2023-01-28T10:30:57.442Z,-0.83
2023-01-28T10:33:37.441Z,-0.87
2023-01-28T10:36:05.055Z,-0.80
2023-01-28T10:38:32.320Z,-1.03
2023-01-28T10:41:04.239Z,-0.89
2023-01-28T10:43:35.695Z,-0.87
2023-01-28T10:46:05.656Z,-0.89
2023-01-28T10:48:42.879Z,-0.86
2023-01-28T10:51:09.960Z,-0.80
2023-01-28T10:53:42.872Z,-0.73
2023-01-28T10:56:25.225Z,-0.75
2023-01-28T10:59:20.977Z,-0.78
2023-01-28T11:01:52.220Z,-0.75
2023-01-28T11:04:27.357Z,-0.67
2023-01-28T11:07:04.265Z,-0.66
2023-01-28T11:09:34.637Z,-0.62
2023-01-28T11:12:17.663Z,-0.66
2023-01-28T11:14:51.632Z,-0.60
2023-01-28T11:17:20.475Z,-0.62
2023-01-28T11:19:47.573Z,-0.58
2023-01-28T11:22:21.984Z,-0.49
2023-01-28T11:24:49.106Z,-0.46
2023-01-28T11:27:18.740Z,-0.43
2023-01-28T11:29:45.961Z,-0.41
2023-01-28T11:32:31.716Z,-0.48
2023-01-28T11:35:00.525Z,-0.41
2023-01-28T11:37:29.329Z,-0.55
2023-01-28T11:40:21.236Z,-0.39
2023-01-28T11:42:51.275Z,-0.42
2023-01-28T11:45:28.481Z,-0.36
2023-01-28T11:48:01.271Z,-0.45
2023-01-28T11:50:43.434Z,-0.56
2023-01-28T11:53:46.768Z,-0.40
2023-01-28T11:56:30.839Z,-0.45
2023-01-28T11:59:07.102Z,-0.56
2023-01-28T12:01:46.728Z,-0.59
2023-01-28T12:04:18.910Z,-0.59
2023-01-28T12:07:19.963Z,-0.62
2023-01-28T12:09:57.922Z,-0.60
2023-01-28T12:12:55.068Z,-0.47
2023-01-28T12:15:41.183Z,-0.44
2023-01-28T12:18:18.681Z,-0.38
2023-01-28T12:20:49.511Z,-0.42
2023-01-28T12:23:38.637Z,-0.52
2023-01-28T12:26:35.794Z,-0.50
2023-01-28T12:29:19.549Z,-0.54
2023-01-28T12:32:43.772Z,-0.63
2023-01-28T12:35:39.181Z,-0.73
2023-01-28T12:38:15.323Z,-0.62
2023-01-28T12:41:18.493Z,-0.53
2023-01-28T12:44:02.118Z,-0.62
2023-01-28T12:46:35.919Z,-0.69
2023-01-28T12:49:10.399Z,-0.68
2023-01-28T12:51:54.855Z,-0.61
2023-01-28T12:54:30.761Z,-0.53
2023-01-28T12:56:58.449Z,-0.62
2023-01-28T12:59:49.662Z,-0.67
2023-01-28T13:02:21.960Z,-0.73
2023-01-28T13:05:00.690Z,-0.63
2023-01-28T13:07:46.263Z,-0.64
2023-01-28T13:10:28.219Z,-0.75
2023-01-28T13:12:57.023Z,-0.66
2023-01-28T13:15:25.438Z,-0.65
2023-01-28T13:18:04.700Z,-0.56
2023-01-28T13:20:54.156Z,-0.55
2023-01-28T13:23:24.528Z,-0.49
2023-01-28T13:25:55.736Z,-0.48
2023-01-28T13:28:31.644Z,-0.51
2023-01-28T13:31:17.414Z,-0.58
2023-01-28T13:33:48.895Z,-0.57
2023-01-28T13:36:24.127Z,-0.53
2023-01-28T13:39:14.735Z,-0.59
2023-01-28T13:41:53.557Z,-0.87
2023-01-28T13:44:26.330Z,-0.60
2023-01-28T13:47:14.848Z,-0.75
2023-01-28T13:49:56.886Z,-0.96
2023-01-28T13:52:33.185Z,-0.77
2023-01-28T13:55:25.956Z,-0.77
2023-01-28T13:58:09.222Z,-0.79
2023-01-28T14:01:14.159Z,-0.86
2023-01-28T14:03:58.630Z,-0.76
2023-01-28T14:06:25.606Z,-0.77
2023-01-28T14:09:11.285Z,-0.81
2023-01-28T14:11:53.091Z,-0.83
2023-01-28T14:14:34.892Z,-0.85
2023-01-28T14:17:08.171Z,-0.85
2023-01-28T14:19:37.952Z,-0.90
2023-01-28T14:22:09.607Z,-1.01
2023-01-28T14:24:40.665Z,-0.96
2023-01-28T14:27:19.614Z,-0.86
2023-01-28T14:30:05.238Z,-0.92
2023-01-28T14:32:34.232Z,-0.84
2023-01-28T14:35:08.480Z,-0.86
2023-01-28T14:37:35.934Z,-0.92
2023-01-28T14:40:06.198Z,-0.93
2023-01-28T14:42:41.716Z,-0.89
2023-01-28T14:45:30.563Z,-0.90
2023-01-28T14:48:00.564Z,-0.86
2023-01-28T14:50:52.412Z,-0.86
2023-01-28T14:53:25.466Z,-0.91
2023-01-28T14:55:58.940Z,-0.91
2023-01-28T14:58:32.600Z,-1.01
2023-01-28T15:01:01.020Z,-0.99
2023-01-28T15:03:29.871Z,-1.24
2023-01-28T15:06:20.977Z,-0.88
2023-01-28T15:08:48.626Z,-0.92
2023-01-28T15:11:21.077Z,-0.85
2023-01-28T15:13:51.342Z,-0.82
2023-01-28T15:16:23.100Z,-0.78
2023-01-28T15:18:51.148Z,-0.72
2023-01-28T15:21:23.356Z,-0.70
2023-01-28T15:23:54.922Z,-0.72
2023-01-28T15:26:24.796Z,-0.83
2023-01-28T15:28:53.001Z,-0.79
2023-01-28T15:31:29.096Z,-0.86
2023-01-28T15:34:11.236Z,-0.81
2023-01-28T15:36:38.967Z,-0.83
2023-01-28T15:39:23.921Z,-1.19
2023-01-28T15:42:02.211Z,-0.88
2023-01-28T15:44:35.963Z,-0.99
2023-01-28T15:47:17.903Z,-1.03
2023-01-28T15:49:48.751Z,-1.42
2023-01-28T15:52:15.927Z,-0.91
2023-01-28T15:54:45.870Z,-0.85
2023-01-28T15:57:19.000Z,-0.84
2023-01-28T15:59:47.539Z,-0.87
2023-01-28T16:02:18.561Z,-0.97
2023-01-28T16:05:00.514Z,-0.95
2023-01-28T16:07:30.821Z,-0.98
2023-01-28T16:10:02.265Z,-0.78
2023-01-28T16:12:31.169Z,-0.79
2023-01-28T16:15:01.386Z,-0.80
2023-01-28T16:17:39.009Z,-1.16
2023-01-28T16:20:09.639Z,-0.91
2023-01-28T16:22:39.333Z,-0.85
2023-01-28T16:25:21.346Z,-0.86
2023-01-28T16:27:48.600Z,-0.89
2023-01-28T16:30:16.877Z,-1.18
2023-01-28T16:32:44.372Z,-0.97
2023-01-28T16:35:21.982Z,-0.91
2023-01-28T16:37:49.984Z,-0.89
2023-01-28T16:40:19.990Z,-0.90
2023-01-28T16:42:50.508Z,-0.88
2023-01-28T16:45:21.007Z,-0.88
2023-01-28T16:47:48.062Z,-0.94
2023-01-28T16:50:15.922Z,-0.88
2023-01-28T16:52:45.266Z,-0.85
2023-01-28T16:55:19.179Z,-0.81
2023-01-28T16:57:49.072Z,-0.87
2023-01-28T17:00:18.509Z,-0.84
2023-01-28T17:02:45.678Z,-0.81
2023-01-28T17:05:12.950Z,-0.87
2023-01-28T17:07:39.952Z,-0.89
2023-01-28T17:10:07.553Z,-0.84
2023-01-28T17:12:34.817Z,-0.83
2023-01-28T17:15:04.005Z,-1.01
2023-01-28T17:17:31.716Z,-0.88
2023-01-28T17:19:58.855Z,-0.95
2023-01-28T17:22:25.857Z,-0.93
2023-01-28T17:24:52.828Z,-0.99
2023-01-28T17:27:19.811Z,-0.98
2023-01-28T17:29:46.780Z,-1.20
2023-01-28T17:32:13.778Z,-0.97
2023-01-28T17:34:40.797Z,-1.03
2023-01-28T17:37:07.724Z,-1.18
2023-01-28T17:39:34.666Z,-1.04
2023-01-28T17:42:01.657Z,-1.03
2023-01-28T17:44:28.686Z,-0.97
2023-01-28T17:46:55.637Z,-0.95
2023-01-28T17:49:22.645Z,-1.18
2023-01-28T17:51:49.623Z,-0.95
2023-01-28T17:54:17.094Z,-0.92
2023-01-28T17:56:44.107Z,-0.92
2023-01-28T17:59:11.787Z,-0.91
2023-01-28T18:01:38.778Z,-0.92
2023-01-28T18:04:05.828Z,-0.91
2023-01-28T18:06:35.731Z,-0.88
2023-01-28T18:09:03.749Z,-0.87
2023-01-28T18:11:32.225Z,-0.87
2023-01-28T18:13:59.173Z,-0.96
2023-01-28T18:16:26.176Z,-0.82
2023-01-28T18:18:53.166Z,-0.89
2023-01-28T18:21:51.362Z,-0.88
2023-01-28T18:24:19.774Z,-0.78
2023-01-28T18:26:46.911Z,-0.73
2023-01-28T18:29:17.170Z,-0.77
2023-01-28T18:31:44.681Z,-0.75
2023-01-28T18:34:12.713Z,-0.79
2023-01-28T18:36:39.715Z,-0.77
2023-01-28T18:39:06.657Z,-0.83
2023-01-28T18:41:33.718Z,-0.87
2023-01-28T18:44:00.834Z,-0.65
2023-01-28T18:46:27.826Z,-0.66
2023-01-28T18:48:57.448Z,-0.61
2023-01-28T18:51:30.386Z,-0.66
2023-01-28T18:54:02.921Z,-0.70
2023-01-28T18:56:30.851Z,-0.85
2023-01-28T18:58:59.998Z,-0.77
2023-01-28T19:01:27.679Z,-0.78
2023-01-28T19:03:55.694Z,-0.82
2023-01-28T19:06:23.268Z,-0.86
2023-01-28T19:08:59.430Z,-0.88
2023-01-28T19:11:28.274Z,-0.91
2023-01-28T19:13:55.465Z,-0.88
2023-01-28T19:16:22.667Z,-0.85
2023-01-28T19:19:00.866Z,-0.84
2023-01-28T19:21:29.790Z,-0.94
2023-01-28T19:24:02.593Z,-0.81
2023-01-28T19:26:31.300Z,-0.79
2023-01-28T19:28:58.956Z,-0.83
2023-01-28T19:31:27.208Z,-0.57
2023-01-28T19:33:59.206Z,-0.59
2023-01-28T19:36:28.430Z,-0.75
2023-01-28T19:39:03.771Z,-0.65
2023-01-28T19:41:31.183Z,-0.66
2023-01-28T19:43:58.705Z,-0.66
2023-01-28T19:46:26.529Z,-0.72
2023-01-28T19:48:54.398Z,-0.78
2023-01-28T19:51:22.785Z,-0.94
2023-01-28T19:53:51.616Z,-0.85
2023-01-28T19:56:19.839Z,-0.84
2023-01-28T19:58:47.432Z,-0.81
2023-01-28T20:01:18.476Z,-0.84
2023-01-28T20:03:46.135Z,-0.85
2023-01-28T20:06:16.624Z,-0.93
2023-01-28T20:08:44.747Z,-0.90
2023-01-28T20:11:15.411Z,-0.98
2023-01-28T20:13:44.723Z,-0.92
2023-01-28T20:16:20.934Z,-1.07
2023-01-28T20:18:53.692Z,-0.86
2023-01-28T20:21:21.615Z,-0.90
2023-01-28T20:23:51.682Z,-0.92
2023-01-28T20:26:21.375Z,-0.95
2023-01-28T20:28:49.487Z,-0.77
2023-01-28T20:31:17.479Z,-0.78
2023-01-28T20:33:44.919Z,-0.86
2023-01-28T20:36:14.527Z,-0.75
2023-01-28T20:38:44.109Z,-1.15
2023-01-28T20:41:16.524Z,-0.73
2023-01-28T20:43:49.252Z,-0.71
2023-01-28T20:46:29.708Z,-0.72
2023-01-28T20:49:03.335Z,-0.73
2023-01-28T20:51:35.892Z,-0.72
2023-01-28T20:54:03.526Z,-0.70
2023-01-28T20:56:31.323Z,-0.69
2023-01-28T20:59:04.374Z,-0.69
2023-01-28T21:01:34.280Z,-0.73
2023-01-28T21:04:02.218Z,-0.62
2023-01-28T21:06:29.820Z,-0.74
2023-01-28T21:09:11.221Z,-0.63
2023-01-28T21:12:00.045Z,-0.63
2023-01-28T21:14:27.034Z,-0.63
2023-01-28T21:16:54.093Z,-0.59
2023-01-28T21:19:21.185Z,-0.54
2023-01-28T21:21:48.217Z,-0.54
2023-01-28T21:24:15.212Z,-0.56
2023-01-28T21:26:42.271Z,-0.55
2023-01-28T21:29:09.359Z,-0.52
2023-01-28T21:31:38.084Z,-0.46
2023-01-28T21:34:05.032Z,-0.57
2023-01-28T21:36:33.999Z,-0.77
2023-01-28T21:39:01.669Z,-0.43
2023-01-28T21:41:31.531Z,-0.68
2023-01-28T21:43:59.115Z,-0.43
2023-01-28T21:46:29.337Z,-0.41
2023-01-28T21:49:01.673Z,-0.37
2023-01-28T21:51:46.417Z,-0.34
2023-01-28T21:54:19.474Z,-0.29
2023-01-28T21:56:49.464Z,-0.19
2023-01-28T21:59:29.776Z,-0.18
2023-01-28T22:02:05.199Z,-0.29
2023-01-28T22:04:35.137Z,-0.41
2023-01-28T22:07:04.314Z,-0.32
2023-01-28T22:09:33.545Z,-0.62
2023-01-28T22:12:03.497Z,-0.35
2023-01-28T22:14:30.811Z,-0.33
2023-01-28T22:16:57.804Z,-0.40
2023-01-28T22:19:24.918Z,-0.44
2023-01-28T22:21:52.102Z,-0.42
2023-01-28T22:24:22.608Z,-0.49
2023-01-28T22:26:49.810Z,-0.33
2023-01-28T22:29:19.032Z,-0.33
2023-01-28T22:31:47.465Z,-0.33
2023-01-28T22:34:15.309Z,-0.35
2023-01-28T22:36:42.725Z,-1.14
2023-01-28T22:39:13.862Z,-0.34
2023-01-28T22:41:41.941Z,-0.35
2023-01-28T22:44:09.039Z,-0.29
2023-01-28T22:46:37.741Z,-0.30
2023-01-28T22:49:05.609Z,-0.29
2023-01-28T22:51:35.209Z,-0.45
2023-01-28T22:54:02.566Z,-0.30
2023-01-28T22:56:30.779Z,-0.20
2023-01-28T22:58:59.829Z,-0.30
2023-01-28T23:01:26.904Z,-0.19
2023-01-28T23:03:56.270Z,-0.18
2023-01-28T23:06:25.458Z,-0.14
2023-01-28T23:08:52.648Z,-0.04
2023-01-28T23:11:25.711Z,0.01
2023-01-28T23:14:14.456Z,0.02
2023-01-28T23:17:00.170Z,0.07
2023-01-28T23:19:45.853Z,0.05
2023-01-28T23:22:35.324Z,0.04
2023-01-28T23:25:02.292Z,0.03
2023-01-28T23:27:30.151Z,-0.02
2023-01-28T23:29:57.128Z,-0.13
2023-01-28T23:32:24.117Z,-0.15
2023-01-28T23:34:51.154Z,-0.21
2023-01-28T23:37:18.494Z,-0.23
2023-01-28T23:39:45.481Z,-0.23
2023-01-28T23:42:17.693Z,-0.67
2023-01-28T23:44:44.906Z,-0.30
2023-01-28T23:47:11.914Z,-0.21
2023-01-28T23:49:39.403Z,-0.61
2023-01-28T23:52:07.412Z,-0.20
2023-01-28T23:54:34.830Z,-0.47
2023-01-28T23:57:02.653Z,-0.26
2023-01-28T23:59:29.908Z,-0.29
